Time;durP1;ratioP1;P1;durP2;ratioP2;P2;SDS_P1;SDS_P2;PMS_P1;PMS_P2;Temp;Humidity;BMP_temperature;BMP_pressure;BME280_temperature;BME280_humidity;BME280_pressure;Samples;Min_cycle;Max_cycle;Signal;HPM_P1;HPM_P2
2022/03/09 00:02:48;;;;;;;60.17;26.80;;;6.70;92.70;;;;;;12934740;23;20689;-80
2022/03/09 00:07:50;;;;;;;70.73;29.53;;;6.10;93.00;;;;;;12890372;23;20194;-80
2022/03/09 00:12:57;;;;;;;61.13;28.93;;;5.50;94.30;;;;;;12888699;23;20661;-80
2022/03/09 00:18:01;;;;;;;62.63;29.47;;;5.40;95.30;;;;;;12916818;23;20193;-80
2022/03/09 00:23:03;;;;;;;64.53;29.33;;;5.00;96.60;;;;;;12934376;23;20175;-80
2022/03/09 00:28:06;;;;;;;72.50;30.87;;;4.80;97.50;;;;;;12916408;23;20174;-80
2022/03/09 00:33:09;;;;;;;57.60;25.57;;;4.50;97.60;;;;;;12890269;23;20236;-80
2022/03/09 00:38:12;;;;;;;60.27;28.40;;;4.70;99.90;;;;;;12916611;23;20166;-80
2022/03/09 00:43:15;;;;;;;55.40;26.63;;;5.50;98.60;;;;;;12863660;23;20534;-80
2022/03/09 00:48:17;;;;;;;47.63;22.97;;;5.30;97.70;;;;;;12934171;23;20507;-80
2022/03/09 00:53:20;;;;;;;67.93;29.30;;;6.10;97.70;;;;;;12918504;23;20187;-80
2022/03/09 00:58:22;;;;;;;80.40;37.83;;;6.20;93.50;;;;;;12920631;23;20560;-80
2022/03/09 01:03:25;;;;;;;47.63;22.73;;;4.80;93.70;;;;;;12920960;23;20170;-80
2022/03/09 01:08:28;;;;;;;57.33;27.13;;;4.90;99.90;;;;;;12933999;23;20190;-81
2022/03/09 01:13:30;;;;;;;44.17;22.83;;;5.70;98.50;;;;;;12920411;23;20186;-80
2022/03/09 01:18:33;;;;;;;56.17;25.73;;;6.60;95.20;;;;;;12893713;23;20494;-80
2022/03/09 01:23:35;;;;;;;46.80;23.17;;;6.10;94.30;;;;;;12919734;23;20256;-80
2022/03/09 01:28:38;;;;;;;74.07;33.10;;;6.40;95.30;;;;;;12892524;23;20565;-80
2022/03/09 01:33:40;;;;;;;80.97;34.27;;;6.40;93.00;;;;;;12919808;23;20561;-80
2022/03/09 01:38:44;;;;;;;45.53;21.73;;;5.30;92.90;;;;;;12937635;23;20162;-80
2022/03/09 01:44:08;;;;;;;64.23;31.03;;;5.10;98.20;;;;;;12892638;23;20175;-80
2022/03/09 01:49:11;;;;;;;47.20;23.37;;;5.80;94.80;;;;;;12938492;23;20645;-80
2022/03/09 01:54:14;;;;;;;65.73;28.73;;;5.70;96.10;;;;;;12892852;23;20197;-80
2022/03/09 01:59:17;;;;;;;64.17;28.77;;;5.70;94.40;;;;;;12918839;23;20220;-80
2022/03/09 02:04:20;;;;;;;33.30;18.10;;;5.60;96.00;;;;;;12918943;23;20171;-80
2022/03/09 02:14:49;;;;;;;55.93;24.60;;;6.50;92.60;;;;;;12925694;23;20170;-80
2022/03/09 02:19:52;;;;;;;37.87;18.37;;;6.20;93.70;;;;;;12936397;23;20170;-80
2022/03/09 02:24:55;;;;;;;69.60;30.30;;;6.00;95.70;;;;;;12935890;23;20228;-80
2022/03/09 02:29:57;;;;;;;48.73;23.40;;;6.00;93.30;;;;;;12917744;23;20514;-81
2022/03/09 02:35:01;;;;;;;58.53;26.07;;;5.50;94.50;;;;;;12917964;23;20550;-80
2022/03/09 02:40:08;;;;;;;55.23;26.10;;;5.00;95.50;;;;;;12910187;23;20208;-80
2022/03/09 02:45:11;;;;;;;48.90;26.27;;;5.00;96.40;;;;;;12923271;23;20914;-80
2022/03/09 02:50:15;;;;;;;64.27;28.53;;;5.10;97.20;;;;;;12915995;23;20533;-80
2022/03/09 02:55:18;;;;;;;60.03;28.13;;;5.10;96.00;;;;;;12917795;23;20208;-80
2022/03/09 03:00:21;;;;;;;62.73;28.73;;;4.70;96.30;;;;;;12917567;23;20569;-81
2022/03/09 03:05:23;;;;;;;51.67;25.17;;;4.90;97.40;;;;;;12891242;23;20708;-80
2022/03/09 03:10:26;;;;;;;39.40;18.87;;;5.10;96.20;;;;;;12917398;23;20190;-80
2022/03/09 03:15:28;;;;;;;46.03;24.77;;;6.10;96.90;;;;;;12894530;23;20174;-80
2022/03/09 03:20:31;;;;;;;51.07;24.93;;;6.40;93.40;;;;;;12865190;23;20225;-80
2022/03/09 03:25:33;;;;;;;36.03;18.83;;;6.90;92.10;;;;;;12934214;23;20201;-80
2022/03/09 03:30:35;;;;;;;40.77;20.07;;;7.00;92.00;;;;;;12889199;23;20221;-80
2022/03/09 03:35:38;;;;;;;34.40;18.63;;;6.70;91.00;;;;;;12916413;23;20162;-80
2022/03/09 03:40:41;;;;;;;44.97;23.67;;;6.20;94.50;;;;;;12908929;23;20175;-80
2022/03/09 03:45:43;;;;;;;46.43;24.40;;;6.70;90.20;;;;;;12920188;23;20224;-80
2022/03/09 03:50:46;;;;;;;51.07;24.93;;;5.90;91.70;;;;;;12889302;23;20224;-80
2022/03/09 03:55:48;;;;;;;50.00;24.97;;;5.50;91.90;;;;;;12916664;23;20186;-80
2022/03/09 04:00:51;;;;;;;45.27;23.73;;;4.90;94.00;;;;;;12916244;23;20200;-80
2022/03/09 04:05:53;;;;;;;42.10;21.93;;;4.60;95.00;;;;;;12916397;23;20174;-80
2022/03/09 04:10:56;;;;;;;31.70;18.27;;;5.70;95.40;;;;;;12889129;23;20278;-80
2022/03/09 04:15:58;;;;;;;32.70;18.17;;;6.40;94.70;;;;;;12888617;23;20558;-80
2022/03/09 04:21:02;;;;;;;45.33;21.73;;;7.00;92.50;;;;;;12888738;23;20178;-80
2022/03/09 04:26:06;;;;;;;38.67;19.33;;;7.70;90.70;;;;;;12917549;23;20167;-80
2022/03/09 04:31:09;;;;;;;44.80;20.40;;;8.20;88.00;;;;;;12868675;23;20187;-80
2022/03/09 04:36:12;;;;;;;49.80;21.57;;;7.90;86.90;;;;;;12938874;23;20167;-80
2022/03/09 04:41:15;;;;;;;61.53;27.47;;;7.50;88.20;;;;;;12920544;23;20166;-80
2022/03/09 04:46:18;;;;;;;40.80;21.07;;;6.90;86.30;;;;;;12868294;23;20205;-80
2022/03/09 04:51:20;;;;;;;53.00;24.63;;;6.50;91.20;;;;;;12920221;23;20645;-79
2022/03/09 04:56:23;;;;;;;56.87;27.47;;;6.50;89.50;;;;;;12893687;23;20175;-80
2022/03/09 05:01:25;;;;;;;39.03;21.67;;;5.90;90.20;;;;;;12915448;23;20596;-80
2022/03/09 05:06:28;;;;;;;41.30;22.63;;;6.30;91.60;;;;;;12918776;23;20501;-80
2022/03/09 05:11:31;;;;;;;30.03;16.60;;;6.50;90.50;;;;;;12855038;23;20207;-80
2022/03/09 05:16:33;;;;;;;38.93;19.77;;;6.80;91.40;;;;;;12853962;23;20497;-80
2022/03/09 05:21:36;;;;;;;33.17;17.53;;;7.30;90.10;;;;;;12856556;23;20266;-80
2022/03/09 05:26:38;;;;;;;32.57;17.50;;;7.30;90.00;;;;;;12853708;23;20175;-80
2022/03/09 05:31:42;;;;;;;40.03;20.23;;;7.60;88.20;;;;;;12855793;23;20222;-81
2022/03/09 05:36:44;;;;;;;42.17;23.20;;;6.50;96.90;;;;;;12854848;23;20194;-80
2022/03/09 05:41:50;;;;;;;43.40;23.43;;;9.00;83.40;;;;;;12874786;23;20237;-80
2022/03/09 05:46:52;;;;;;;48.17;25.47;;;9.20;76.60;;;;;;12872673;23;20474;-80
2022/03/09 05:51:55;;;;;;;47.13;24.90;;;9.60;71.60;;;;;;12855481;23;20237;-80
2022/03/09 05:56:57;;;;;;;44.60;23.77;;;9.60;71.00;;;;;;12852814;23;20559;-80
2022/03/09 06:02:02;;;;;;;45.33;25.07;;;9.80;70.40;;;;;;12853729;23;20646;-80
2022/03/09 06:07:05;;;;;;;43.90;23.90;;;9.90;69.90;;;;;;12859697;23;20200;-80
2022/03/09 06:12:08;;;;;;;46.03;22.03;;;9.90;70.00;;;;;;12891559;23;20249;-80
2022/03/09 06:17:10;;;;;;;43.80;22.63;;;9.90;70.10;;;;;;12907420;23;20195;-80
2022/03/09 06:22:13;;;;;;;40.47;22.37;;;10.50;68.70;;;;;;12890990;23;20179;-80
2022/03/09 06:27:16;;;;;;;34.57;20.07;;;10.70;67.90;;;;;;12937364;23;20201;-80
2022/03/09 06:32:18;;;;;;;37.93;22.03;;;11.00;67.30;;;;;;12866396;23;20729;-80
2022/03/09 06:37:21;;;;;;;36.33;19.60;;;10.90;67.30;;;;;;12889422;23;20200;-80
2022/03/09 06:42:25;;;;;;;43.90;20.37;;;11.20;67.50;;;;;;12918132;23;20235;-80
2022/03/09 06:47:27;;;;;;;34.07;19.00;;;11.00;66.90;;;;;;12890734;23;20648;-81
2022/03/09 06:52:30;;;;;;;26.00;16.33;;;10.60;67.00;;;;;;12891010;23;20196;-81
2022/03/09 06:57:33;;;;;;;37.10;19.37;;;9.30;66.90;;;;;;12890058;23;20178;-80
2022/03/09 07:02:39;;;;;;;28.43;17.67;;;5.80;80.60;;;;;;12890151;23;20232;-80
2022/03/09 07:07:42;;;;;;;32.23;17.70;;;4.70;76.50;;;;;;12917503;23;20190;-82
2022/03/09 07:12:46;;;;;;;29.90;17.17;;;4.40;80.10;;;;;;12889874;23;20190;-80
2022/03/09 07:17:49;;;;;;;32.40;18.43;;;5.00;83.80;;;;;;12917072;23;20229;-80
2022/03/09 07:22:52;;;;;;;27.57;17.37;;;3.00;91.20;;;;;;12936578;23;20232;-81
2022/03/09 07:27:55;;;;;;;30.70;18.63;;;3.40;93.70;;;;;;12916744;23;20174;-81
2022/03/09 07:32:58;;;;;;;35.17;17.93;;;3.10;93.00;;;;;;12889456;23;20202;-80
2022/03/09 07:38:01;;;;;;;33.80;19.97;;;3.30;94.60;;;;;;12889545;23;20166;-81
2022/03/09 07:43:03;;;;;;;35.27;18.97;;;4.10;92.90;;;;;;12916440;23;20513;-81
2022/03/09 07:48:06;;;;;;;33.77;18.60;;;3.30;93.10;;;;;;12889824;23;20216;-81
2022/03/09 07:53:08;;;;;;;33.63;17.57;;;4.30;93.30;;;;;;12863776;23;20264;-80
2022/03/09 07:58:10;;;;;;;30.50;17.97;;;5.70;91.40;;;;;;12889684;23;20224;-80
2022/03/09 08:03:13;;;;;;;31.67;17.67;;;6.90;78.80;;;;;;12889581;23;20204;-80
2022/03/09 08:08:35;;;;;;;43.87;17.80;;;5.50;84.80;;;;;;12930664;23;20193;-80
2022/03/09 08:13:37;;;;;;;36.47;17.43;;;7.60;79.10;;;;;;12914045;23;20186;-82
2022/03/09 08:18:45;;;;;;;28.53;17.37;;;7.30;78.40;;;;;;12887021;23;20175;-81
2022/03/09 08:23:48;;;;;;;31.07;16.27;;;6.30;81.20;;;;;;12930488;23;20483;-81
2022/03/09 08:28:50;;;;;;;45.63;19.80;;;6.10;83.20;;;;;;12887134;23;20228;-81
2022/03/09 08:33:55;;;;;;;28.83;16.10;;;5.90;80.60;;;;;;12878390;23;20673;-80
2022/03/09 08:38:57;;;;;;;30.50;15.70;;;7.20;80.60;;;;;;12887090;23;20174;-81
2022/03/09 08:44:00;;;;;;;26.50;16.27;;;5.00;82.50;;;;;;12914690;23;20189;-80
2022/03/09 08:49:02;;;;;;;31.67;16.90;;;5.20;87.30;;;;;;12884732;23;20517;-79
2022/03/09 08:54:05;;;;;;;27.27;13.83;;;5.40;87.40;;;;;;12885814;23;20742;-80
2022/03/09 08:59:07;;;;;;;31.63;16.77;;;5.80;88.40;;;;;;12907050;23;20677;-80
2022/03/09 09:04:10;;;;;;;23.93;12.47;;;6.40;81.60;;;;;;12913689;23;20629;-80
2022/03/09 09:09:14;;;;;;;17.47;7.40;;;5.70;86.80;;;;;;12897196;23;20194;-80
2022/03/09 09:14:17;;;;;;;19.47;10.80;;;6.50;92.40;;;;;;12910890;23;20191;-80
2022/03/09 09:19:23;;;;;;;22.37;13.23;;;7.00;82.50;;;;;;12912405;23;20166;-80
2022/03/09 09:24:25;;;;;;;29.87;14.60;;;6.50;79.40;;;;;;12883843;23;20289;-80
2022/03/09 09:29:28;;;;;;;26.10;13.60;;;5.70;81.90;;;;;;12911800;23;20227;-80
2022/03/09 09:34:30;;;;;;;30.83;15.23;;;5.80;81.10;;;;;;12911561;23;20190;-79
2022/03/09 09:39:33;;;;;;;38.60;16.07;;;6.00;81.30;;;;;;12883633;23;20236;-80
2022/03/09 09:44:37;;;;;;;33.67;15.43;;;6.10;80.00;;;;;;12913316;23;20634;-80
2022/03/09 09:49:43;;;;;;;26.27;13.73;;;6.10;81.90;;;;;;12884689;23;20178;-80
2022/03/09 09:54:49;;;;;;;11.27;6.93;;;5.90;84.70;;;;;;12911645;23;20653;-80
2022/03/09 09:59:52;;;;;;;29.70;16.77;;;7.90;86.90;;;;;;12912272;23;20200;-80
2022/03/09 10:04:54;;;;;;;12.73;8.20;;;7.40;76.70;;;;;;12912303;23;20170;-82
2022/03/09 10:09:57;;;;;;;26.07;11.27;;;8.30;86.10;;;;;;12888888;23;20198;-80
2022/03/09 10:15:00;;;;;;;15.37;11.10;;;7.80;75.20;;;;;;12890875;23;20190;-79
2022/03/09 10:20:10;;;;;;;17.77;10.77;;;6.80;73.80;;;;;;12890006;23;20167;-79
2022/03/09 10:25:13;;;;;;;14.33;8.50;;;7.20;73.40;;;;;;12915928;23;20193;-80
2022/03/09 10:30:21;;;;;;;21.80;10.63;;;8.00;83.40;;;;;;12856512;23;20245;-80
2022/03/09 10:35:30;;;;;;;16.57;10.57;;;7.70;76.10;;;;;;12927328;23;20244;-79
2022/03/09 10:40:40;;;;;;;12.60;6.33;;;7.60;77.30;;;;;;12934503;23;20536;-79
2022/03/09 10:46:19;;;;;;;11.93;8.40;;;8.20;71.30;;;;;;12922881;23;20561;-79
2022/03/09 10:51:34;;;;;;;15.90;8.30;;;7.70;70.10;;;;;;12659622;23;20193;-80
2022/03/09 10:56:38;;;;;;;14.10;9.03;;;6.90;69.40;;;;;;12640063;23;20168;-79
2022/03/09 11:01:42;;;;;;;16.40;8.43;;;7.10;68.70;;;;;;12636200;23;20181;-79
2022/03/09 11:06:46;;;;;;;18.27;8.50;;;7.50;69.90;;;;;;12633367;23;20181;-80
2022/03/09 11:11:50;;;;;;;11.60;8.10;;;7.20;68.60;;;;;;12660637;23;20220;-80
2022/03/09 11:16:57;;;;;;;19.90;9.03;;;7.40;68.10;;;;;;12661594;23;20177;-79
2022/03/09 11:22:00;;;;;;;10.90;7.83;;;7.40;68.20;;;;;;12636144;23;20592;-80
2022/03/09 11:27:03;;;;;;;10.07;6.53;;;7.80;76.30;;;;;;12754239;23;20550;-80
2022/03/09 11:32:08;;;;;;;9.67;5.57;;;8.00;64.90;;;;;;12914402;23;20189;-79
2022/03/09 11:37:11;;;;;;;9.83;4.40;;;8.00;63.50;;;;;;12887590;23;20213;-79
2022/03/09 11:42:19;;;;;;;7.00;4.73;;;8.30;63.00;;;;;;12887782;23;20205;-79
2022/03/09 11:47:54;;;;;;;11.23;5.07;;;8.10;62.60;;;;;;12887667;23;20170;-79
2022/03/09 11:53:06;;;;;;;11.50;6.27;;;7.80;61.20;;;;;;12907484;23;20186;-79
2022/03/09 11:58:08;;;;;;;12.27;5.70;;;7.80;62.80;;;;;;12889460;23;20170;-79
2022/03/09 12:03:10;;;;;;;15.53;6.40;;;7.80;64.40;;;;;;12890022;23;20170;-79
2022/03/09 12:08:14;;;;;;;12.03;5.43;;;7.80;62.20;;;;;;12888200;23;20206;-81
2022/03/09 12:13:35;;;;;;;13.67;5.47;;;8.10;62.20;;;;;;12915820;23;20186;-80
2022/03/09 12:19:06;;;;;;;8.97;4.10;;;8.60;59.30;;;;;;12864643;23;20520;-79
2022/03/09 12:24:08;;;;;;;7.70;5.17;;;8.20;60.00;;;;;;12916055;23;20166;-80
2022/03/09 12:29:29;;;;;;;6.53;4.43;;;8.40;59.30;;;;;;12915062;23;20599;-81
2022/03/09 12:34:37;;;;;;;12.37;5.10;;;8.00;58.10;;;;;;12933446;23;20209;-81
2022/03/09 12:39:47;;;;;;;9.97;4.60;;;8.00;58.70;;;;;;12914588;23;20228;-82
2022/03/09 12:44:50;;;;;;;12.83;6.03;;;8.30;61.50;;;;;;12885413;23;20813;-81
2022/03/09 12:49:55;;;;;;;9.33;4.10;;;8.00;62.00;;;;;;12889875;23;20617;-81
2022/03/09 12:54:58;;;;;;;10.80;5.43;;;8.40;60.70;;;;;;12916654;23;20198;-81
2022/03/09 13:00:07;;;;;;;11.10;6.47;;;8.10;61.30;;;;;;12915886;23;20171;-82
2022/03/09 13:05:13;;;;;;;5.77;3.77;;;8.20;61.80;;;;;;12910303;23;20193;-81
2022/03/09 13:10:15;;;;;;;6.80;3.90;;;8.10;59.60;;;;;;12923920;23;20216;-82
2022/03/09 13:15:19;;;;;;;10.93;6.47;;;8.50;61.30;;;;;;12918070;23;20190;-87
2022/03/09 13:20:22;;;;;;;9.77;5.27;;;8.30;60.70;;;;;;12916812;23;20171;-81
2022/03/09 13:25:30;;;;;;;10.57;5.43;;;8.50;60.70;;;;;;12908737;23;20193;-82
2022/03/09 13:30:33;;;;;;;9.07;5.03;;;8.50;59.90;;;;;;12916506;23;20515;-81
2022/03/09 13:35:47;;;;;;;14.10;6.77;;;8.20;60.90;;;;;;12891270;23;20595;-82
2022/03/09 13:41:01;;;;;;;12.83;5.57;;;8.10;60.60;;;;;;12889393;23;20174;-81
2022/03/09 13:46:22;;;;;;;13.57;5.37;;;8.10;60.80;;;;;;12890294;23;20205;-81
2022/03/09 13:51:35;;;;;;;8.43;4.83;;;8.20;60.90;;;;;;12936002;23;20216;-82
2022/03/09 13:56:37;;;;;;;14.60;4.30;;;8.10;58.40;;;;;;12916356;23;20186;-82
2022/03/09 14:01:40;;;;;;;5.67;3.70;;;8.50;56.20;;;;;;12890241;23;20297;-82
2022/03/09 14:06:54;;;;;;;7.97;4.33;;;8.40;57.30;;;;;;12936028;23;20221;-82
2022/03/09 14:11:57;;;;;;;12.30;4.97;;;8.20;57.90;;;;;;12934735;23;20642;-82
2022/03/09 14:17:00;;;;;;;7.43;3.97;;;8.20;58.40;;;;;;12916968;23;20171;-82
2022/03/09 14:22:03;;;;;;;10.50;5.03;;;8.20;56.80;;;;;;12864170;23;20224;-82
2022/03/09 14:27:06;;;;;;;8.03;4.00;;;8.20;57.60;;;;;;12915566;23;20213;-81
2022/03/09 14:32:08;;;;;;;10.20;5.00;;;8.10;57.00;;;;;;12916910;23;20171;-81
2022/03/09 14:37:12;;;;;;;14.77;4.67;;;8.10;57.40;;;;;;12890621;23;20245;-81
2022/03/09 14:42:17;;;;;;;8.80;5.10;;;8.30;58.80;;;;;;12891628;23;20166;-81
2022/03/09 14:47:19;;;;;;;10.30;5.10;;;8.40;61.90;;;;;;12917716;23;20170;-81
2022/03/09 14:52:22;;;;;;;8.60;4.80;;;8.10;60.60;;;;;;12918322;23;20205;-81
2022/03/09 14:57:29;;;;;;;5.97;4.30;;;7.90;58.60;;;;;;12888636;23;20568;-80
2022/03/09 15:02:32;;;;;;;15.40;5.80;;;8.50;70.90;;;;;;12889657;23;20171;-80
2022/03/09 15:07:35;;;;;;;9.27;5.23;;;8.10;59.10;;;;;;12913502;23;20194;-79
2022/03/09 15:12:37;;;;;;;11.23;5.57;;;7.90;59.40;;;;;;12880087;23;20186;-79
2022/03/09 15:17:40;;;;;;;16.90;6.63;;;7.80;60.80;;;;;;12929174;23;20552;-81
2022/03/09 15:22:45;;;;;;;9.63;6.57;;;7.90;61.70;;;;;;12911363;23;20224;-80
2022/03/09 15:28:03;;;;;;;11.00;6.67;;;7.70;59.80;;;;;;12904642;23;20260;-80
2022/03/09 15:33:05;;;;;;;17.33;7.77;;;7.60;60.70;;;;;;12903573;23;20247;-81
2022/03/09 15:38:08;;;;;;;15.57;7.53;;;7.50;61.30;;;;;;12888734;23;20189;-80
2022/03/09 15:43:11;;;;;;;15.40;9.10;;;7.40;64.00;;;;;;12889581;23;20175;-80
2022/03/09 15:48:13;;;;;;;19.17;9.57;;;8.50;67.80;;;;;;12915830;23;20166;-81
2022/03/09 15:53:16;;;;;;;7.03;5.53;;;9.10;63.50;;;;;;12890447;23;20738;-81
2022/03/09 15:58:19;;;;;;;22.20;11.43;;;9.00;69.80;;;;;;12916387;23;20171;-81
2022/03/09 16:03:21;;;;;;;17.53;8.83;;;8.10;67.80;;;;;;12915225;23;20174;-81
2022/03/09 16:08:24;;;;;;;17.50;9.97;;;7.10;69.70;;;;;;12886526;23;20202;-81
2022/03/09 16:13:27;;;;;;;21.17;11.10;;;6.90;71.30;;;;;;12887443;23;20217;-81
2022/03/09 16:18:30;;;;;;;24.83;13.93;;;7.20;70.90;;;;;;12884882;23;20174;-80
2022/03/09 16:23:34;;;;;;;33.13;18.60;;;7.10;71.80;;;;;;12933075;23;20220;-80
2022/03/09 16:28:40;;;;;;;42.23;20.50;;;6.40;74.50;;;;;;12932018;23;20562;-80
2022/03/09 16:33:44;;;;;;;84.40;39.93;;;5.90;77.60;;;;;;12916024;23;20190;-80
2022/03/09 16:38:47;;;;;;;51.00;22.80;;;5.50;79.40;;;;;;12887689;23;20228;-81
2022/03/09 16:43:52;;;;;;;27.97;14.23;;;5.20;81.90;;;;;;12909958;23;20174;-80
2022/03/09 16:48:54;;;;;;;29.10;13.50;;;5.00;83.20;;;;;;12910670;23;20170;-81
2022/03/09 16:53:57;;;;;;;31.33;13.03;;;4.60;85.20;;;;;;12883893;23;20624;-80
2022/03/09 16:58:59;;;;;;;33.00;14.90;;;4.50;87.40;;;;;;12909200;23;20170;-81
2022/03/09 17:04:04;;;;;;;36.50;16.77;;;4.60;88.70;;;;;;12911936;23;20175;-81
2022/03/09 17:09:07;;;;;;;40.87;16.30;;;4.30;90.50;;;;;;12882240;23;20202;-80
2022/03/09 17:14:10;;;;;;;36.27;18.60;;;3.80;91.80;;;;;;12912137;23;20244;-81
2022/03/09 17:19:14;;;;;;;20.77;9.10;;;3.60;92.70;;;;;;12907654;23;20171;-79
2022/03/09 17:24:17;;;;;;;138.87;25.10;;;5.20;99.90;;;;;;12889944;23;20228;-79
2022/03/09 17:29:19;;;;;;;67.40;28.40;;;6.80;93.30;;;;;;12917592;23;20174;-79
2022/03/09 17:34:22;;;;;;;62.67;27.40;;;3.00;98.40;;;;;;12919672;23;20186;-80
2022/03/09 17:39:25;;;;;;;79.07;29.40;;;2.40;99.90;;;;;;12924469;23;20163;-78
2022/03/09 17:44:27;;;;;;;77.73;33.70;;;2.30;99.90;;;;;;12894002;23;20232;-79
2022/03/09 17:49:31;;;;;;;124.13;58.45;;;2.10;99.90;;;;;;12897581;23;20450;-78
2022/03/09 17:54:33;;;;;;;113.83;46.07;;;1.80;99.90;;;;;;12898332;23;20194;-78
2022/03/09 17:59:36;;;;;;;106.60;45.97;;;1.80;99.90;;;;;;12924334;23;20170;-79
2022/03/09 18:04:39;;;;;;;105.57;45.83;;;2.00;99.90;;;;;;12872874;23;20299;-79
2022/03/09 18:09:41;;;;;;;99.07;39.77;;;1.50;99.90;;;;;;12924562;23;20197;-78
2022/03/09 18:14:44;;;;;;;138.90;55.07;;;1.80;99.90;;;;;;12924484;23;20265;-79
2022/03/09 18:19:48;;;;;;;131.37;51.77;;;1.90;99.90;;;;;;12927493;23;20172;-77
2022/03/09 18:24:51;;;;;;;130.60;51.13;;;1.20;99.90;;;;;;12899224;23;20181;-77
2022/03/09 18:30:14;;;;;;;141.37;52.57;;;0.90;99.90;;;;;;12934202;23;20173;-78
2022/03/09 18:35:17;;;;;;;111.43;45.27;;;1.10;99.90;;;;;;12923493;23;20189;-78
2022/03/09 18:40:19;;;;;;;92.90;39.73;;;1.00;99.90;;;;;;12926344;23;20220;-77
2022/03/09 18:45:23;;;;;;;121.30;47.50;;;1.20;99.90;;;;;;12898210;23;20567;-79
2022/03/09 18:50:25;;;;;;;79.20;35.33;;;1.00;99.90;;;;;;12922131;23;20194;-78
2022/03/09 18:55:28;;;;;;;87.40;37.17;;;0.50;99.90;;;;;;12919755;23;20205;-79
2022/03/09 19:00:31;;;;;;;90.93;39.87;;;;;;;;;;12892223;23;20516;-79
2022/03/09 19:05:33;;;;;;;106.53;46.30;;;0.10;99.90;;;;;;12893560;23;20171;-79
2022/03/09 19:10:37;;;;;;;125.13;50.17;;;0.20;99.90;;;;;;12889358;23;20640;-78
2022/03/09 19:15:39;;;;;;;118.67;47.20;;;0.20;99.90;;;;;;12890826;23;20519;-79
2022/03/09 19:20:42;;;;;;;127.20;47.30;;;-0.20;99.90;;;;;;12890396;23;20172;-78
2022/03/09 19:25:45;;;;;;;99.77;44.07;;;-0.50;99.90;;;;;;12912112;23;20556;-79
2022/03/09 19:30:47;;;;;;;118.00;46.30;;;-0.30;99.90;;;;;;12864107;23;20182;-79
2022/03/09 19:35:50;;;;;;;125.03;46.00;;;-0.60;99.90;;;;;;12888380;23;20200;-79
2022/03/09 19:40:52;;;;;;;113.53;46.00;;;-0.60;99.90;;;;;;12914412;23;20193;-79
2022/03/09 19:45:55;;;;;;;81.30;39.13;;;-0.80;99.90;;;;;;12915396;23;20170;-79
2022/03/09 19:50:57;;;;;;;89.57;38.07;;;-0.90;99.90;;;;;;12917254;23;20163;-79
2022/03/09 19:56:00;;;;;;;101.53;38.40;;;-0.80;99.90;;;;;;12915254;23;20192;-79
2022/03/09 20:01:04;;;;;;;96.73;38.47;;;-0.80;99.90;;;;;;12915007;23;20174;-78
2022/03/09 20:06:07;;;;;;;107.70;46.07;;;;;;;;;;12915216;23;20166;-79
2022/03/09 20:11:10;;;;;;;104.23;42.97;;;-0.90;99.90;;;;;;12886874;23;20207;-80
2022/03/09 20:16:13;;;;;;;109.77;46.53;;;-1.10;99.90;;;;;;12887607;23;20186;-80
2022/03/09 20:21:16;;;;;;;110.40;46.83;;;-1.40;99.90;;;;;;12863932;23;20638;-81
2022/03/09 20:26:18;;;;;;;114.40;48.00;;;-1.20;99.90;;;;;;12928866;23;20505;-79
2022/03/09 20:31:20;;;;;;;116.53;47.23;;;-1.30;99.90;;;;;;12910037;23;20171;-80
2022/03/09 20:36:26;;;;;;;127.63;52.60;;;-1.30;99.90;;;;;;12910631;23;20186;-80
2022/03/09 20:41:29;;;;;;;110.23;47.40;;;-1.30;99.90;;;;;;12910567;23;20225;-85
2022/03/09 20:46:31;;;;;;;114.77;49.13;;;-1.60;99.90;;;;;;12884742;23;20170;-81
2022/03/09 20:51:34;;;;;;;119.20;47.83;;;-1.80;99.90;;;;;;12910584;23;20212;-81
2022/03/09 20:56:37;;;;;;;79.07;31.23;;;-1.70;99.90;;;;;;12884191;23;20190;-80
2022/03/09 21:01:39;;;;;;;104.43;39.23;;;-0.60;99.90;;;;;;12910782;22;20233;-80
2022/03/09 21:06:42;;;;;;;84.83;33.70;;;4.40;99.90;;;;;;12911079;23;20224;-79
2022/03/09 21:11:45;;;;;;;75.73;32.20;;;5.50;99.90;;;;;;12887742;23;20208;-80
2022/03/09 21:16:47;;;;;;;71.83;32.60;;;5.80;99.90;;;;;;12889763;23;20232;-81
2022/03/09 21:21:50;;;;;;;73.97;33.23;;;6.70;99.90;;;;;;12918008;23;20225;-80
2022/03/09 21:26:53;;;;;;;67.90;33.80;;;7.10;96.80;;;;;;12918694;23;20193;-81
2022/03/09 21:31:55;;;;;;;62.70;30.33;;;7.20;92.90;;;;;;12919059;23;20170;-81
2022/03/09 21:36:58;;;;;;;59.47;30.90;;;7.80;92.50;;;;;;12891273;23;20221;-80
2022/03/09 21:42:00;;;;;;;72.93;33.10;;;7.50;91.50;;;;;;12916490;22;20212;-89
2022/03/09 21:47:03;;;;;;;59.70;28.57;;;8.10;91.90;;;;;;12916043;23;20197;-89
2022/03/09 21:52:06;;;;;;;50.90;28.27;;;8.80;90.30;;;;;;12914233;22;20202;-80
2022/03/09 21:57:09;;;;;;;56.33;27.17;;;9.10;89.00;;;;;;12891133;23;20194;-81
2022/03/09 22:02:12;;;;;;;65.13;29.57;;;;;;;;;;12891621;23;20178;-85
2022/03/09 22:07:15;;;;;;;54.77;26.67;;;9.30;86.30;;;;;;12917238;23;20864;-84
2022/03/09 22:12:18;;;;;;;45.40;23.23;;;9.40;85.90;;;;;;12866683;23;20178;-84
2022/03/09 22:17:20;;;;;;;57.13;27.07;;;9.30;83.80;;;;;;12889429;23;20191;-84
2022/03/09 22:22:23;;;;;;;48.10;24.80;;;9.30;85.60;;;;;;12916816;23;20162;-83
2022/03/09 22:27:25;;;;;;;44.20;23.10;;;8.70;88.40;;;;;;12916280;23;20684;-81
2022/03/09 22:32:28;;;;;;;53.17;24.07;;;9.00;84.60;;;;;;12917836;23;20583;-81
2022/03/09 22:37:30;;;;;;;47.20;23.57;;;8.90;86.50;;;;;;12935723;23;20660;-83
2022/03/09 22:42:33;;;;;;;47.97;23.77;;;9.30;86.30;;;;;;12891922;23;20487;-81
2022/03/09 22:47:35;;;;;;;31.27;18.50;;;9.60;86.00;;;;;;12918193;23;20630;-81
2022/03/09 22:52:38;;;;;;;42.93;22.00;;;9.30;81.70;;;;;;12890261;23;20206;-81
2022/03/09 22:57:41;;;;;;;42.53;22.43;;;9.30;86.80;;;;;;12890561;23;20673;-81
2022/03/09 23:02:43;;;;;;;36.63;18.63;;;9.70;85.00;;;;;;12917961;23;20230;-81
2022/03/09 23:07:46;;;;;;;40.57;20.87;;;9.10;83.00;;;;;;12889914;23;20707;-81
2022/03/09 23:12:48;;;;;;;63.53;30.53;;;8.60;86.40;;;;;;12917748;23;20170;-81
2022/03/09 23:17:51;;;;;;;39.47;21.10;;;7.80;88.70;;;;;;12918155;23;20570;-81
2022/03/09 23:23:07;;;;;;;33.17;18.63;;;7.80;87.50;;;;;;12890528;23;20174;-81
2022/03/09 23:28:10;;;;;;;33.73;18.60;;;7.80;90.30;;;;;;12890968;23;20232;-81
2022/03/09 23:33:12;;;;;;;30.70;15.77;;;8.10;91.10;;;;;;12936389;23;20495;-81
2022/03/09 23:38:15;;;;;;;43.37;19.10;;;7.40;86.50;;;;;;12917238;23;20218;-81
2022/03/09 23:43:17;;;;;;;31.90;16.50;;;7.80;92.20;;;;;;12890156;23;20170;-80
2022/03/09 23:48:20;;;;;;;22.57;12.70;;;9.20;82.70;;;;;;12908043;23;20228;-81
2022/03/09 23:53:22;;;;;;;33.63;17.07;;;9.50;82.00;;;;;;12916747;23;20541;-81
2022/03/09 23:58:27;;;;;;;35.77;18.77;;;9.50;86.20;;;;;;12916520;23;20528;-81
